Create Custom Reports and Graphics: Custom Report

Modesto Jr College

Current Conditions

9/25/21 1:15 AM (-07:00)
Updated Every 15 Minutes
Temp 68.7 °F   3.0
RH 50 %   12
Dew Pt 49.2 °F   3.1
Wind Spd 2.2 mph
Wind Dir N | 3 °
Wind Gust 3.7 mph   2.8
Latest Rain 0.00 In
Daily Rain 0.00 In
Daily Min Temp 68.4 °F   4.0
Daily Max Temp 69.0 °F   2.2

Last 24 Hours

Modesto Jr College

15 Minute Data | America/Los_Angeles
as of 9/25/21 1:28 AM PDT
Date & Time Temp (°F) RH (%) Dew Pt (°F) Wind Spd (mph) Wind Dir (°) Wind Gust (mph) Latest Rain (In) Daily Rain (In) Daily Min Temp (°F) Daily Max Temp (°F)
9/25/21 - 0115 68.7 50 49.2 2.2 N | 3 3.7 0.00 0.00 68.4 69.0
9/25/21 - 0100 68.6 51 50.0 4.1 N | 10 8.6 0.00 0.00 56.2 95.4
9/25/21 - 0045 68.1 54 50.9 3.4 NNE | 14 6.1 0.00 0.00 56.2 95.4
9/25/21 - 0030 68.6 54 51.2 2.9 NNE | 16 4.4 0.00 0.00 56.2 95.4
9/25/21 - 0015 68.9 53 51.3 3.2 NNE | 26 5.3 0.00 0.00 56.2 95.4
9/25/21 - 0000 69.1 53 51.4 3.5 NNE | 27 5.9 0.00 0.00 56.2 95.4
9/24/21 - 2345 69.3 53 51.4 2.8 NNE | 19 5.5 0.00 0.00 56.2 95.4
9/24/21 - 2330 69.4 52 51.2 2.0 NNE | 17 3.9 0.00 0.00 56.2 95.4
9/24/21 - 2315 69.4 51 50.7 2.5 N | 9 5.5 0.00 0.00 56.2 95.4
9/24/21 - 2300 70.5 49 50.3 0.4 NNW | 328 1.3 0.00 0.00 56.2 95.4
9/24/21 - 2245 71.2 47 50.1 1.4 NNW | 330 3.7 0.00 0.00 56.2 95.4
9/24/21 - 2230 71.2 48 50.5 0.7 NNW | 335 3.5 0.00 0.00 56.2 95.4
9/24/21 - 2215 72.4 46 50.2 0.7 NNW | 327 2.4 0.00 0.00 56.2 95.4
9/24/21 - 2200 74.6 42 50.0 1.6 NW | 312 5.7 0.00 0.00 56.2 95.4
9/24/21 - 2145 75.0 40 49.3 2.9 NNW | 340 5.5 0.00 0.00 56.2 95.4
9/24/21 - 2130 74.8 40 49.1 1.6 NNW | 337 6.4 0.00 0.00 56.2 95.4
9/24/21 - 2115 75.9 39 48.9 0.9 NNW | 337 2.8 0.00 0.00 56.2 95.4
9/24/21 - 2100 77.7 36 48.3 2.4 N | 10 4.2 0.00 0.00 56.2 95.4
9/24/21 - 2045 78.9 34 48.2 2.8 N | 357 4.8 0.00 0.00 56.2 95.4
9/24/21 - 2030 80.3 32 47.8 2.7 N | 356 5.0 0.00 0.00 56.2 95.4
9/24/21 - 2015 80.4 33 48.4 3.4 NNW | 342 7.2 0.00 0.00 56.2 95.4
9/24/21 - 2000 78.8 37 50.0 3.0 NNW | 339 7.5 0.00 0.00 56.2 95.4
9/24/21 - 1945 77.0 43 53.0 1.8 NW | 321 3.5 0.00 0.00 56.2 95.4
9/24/21 - 1930 78.0 44 54.3 1.9 NW | 316 2.6 0.00 0.00 56.2 95.4
9/24/21 - 1915 80.2 40 54.0 1.9 NW | 314 2.6 0.00 0.00 56.2 95.4
9/24/21 - 1900 81.5 38 53.3 2.1 NW | 323 4.8 0.00 0.00 56.2 95.4
9/24/21 - 1845 84.5 35 53.9 1.8 W | 274 2.8 0.00 0.00 56.2 95.4
9/24/21 - 1830 87.5 28 50.5 1.8 WNW | 294 3.1 0.00 0.00 56.2 95.4
9/24/21 - 1815 89.4 26 50.5 1.7 NW | 315 2.8 0.00 0.00 56.2 95.4
9/24/21 - 1800 90.9 27 51.9 1.4 WNW | 299 2.8 0.00 0.00 56.2 95.4
9/24/21 - 1745 91.8 24 50.0 1.9 NW | 311 3.9 0.00 0.00 56.2 95.4
9/24/21 - 1730 92.6 26 52.7 2.8 W | 264 4.4 0.00 0.00 56.2 95.4
9/24/21 - 1715 93.7 22 49.2 3.3 W | 267 5.5 0.00 0.00 56.2 95.4
9/24/21 - 1700 94.1 21 48.8 3.8 W | 263 6.4 0.00 0.00 56.2 95.4
9/24/21 - 1645 94.3 20 47.6 3.7 W | 270 6.4 0.00 0.00 56.2 95.4
9/24/21 - 1630 94.4 21 48.0 4.5 W | 266 7.0 0.00 0.00 56.2 95.4
9/24/21 - 1615 94.4 21 48.5 4.6 W | 267 7.2 0.00 0.00 56.2 95.4
9/24/21 - 1600 94.6 21 48.3 4.9 W | 267 8.3 0.00 0.00 56.2 95.4
9/24/21 - 1545 94.9 21 49.2 4.6 W | 264 7.9 0.00 0.00 56.2 95.4
9/24/21 - 1530 94.9 21 49.2 4.1 W | 259 7.7 0.00 0.00 56.2 95.4
9/24/21 - 1515 94.7 22 49.8 4.4 WSW | 254 8.6 0.00 0.00 56.2 95.2
9/24/21 - 1500 94.7 20 47.5 5.4 W | 263 9.6 0.00 0.00 56.2 95.2
9/24/21 - 1445 94.7 21 48.4 4.6 W | 271 7.9 0.00 0.00 56.2 95.2
9/24/21 - 1430 94.8 23 50.8 5.0 W | 264 9.0 0.00 0.00 56.2 95.2
9/24/21 - 1415 94.1 23 51.1 3.7 WSW | 250 7.0 0.00 0.00 56.2 95.0
9/24/21 - 1400 94.0 23 50.0 4.5 WSW | 246 7.7 0.00 0.00 56.2 94.4
9/24/21 - 1345 93.5 23 50.2 4.4 W | 259 7.2 0.00 0.00 56.2 94.3
9/24/21 - 1330 93.5 24 50.9 4.2 WSW | 249 7.7 0.00 0.00 56.2 94.3
9/24/21 - 1315 91.7 23 48.9 3.2 W | 281 7.0 0.00 0.00 56.2 92.7
9/24/21 - 1300 91.5 23 48.1 3.9 NW | 314 7.7 0.00 0.00 56.2 92.4
9/24/21 - 1245 91.1 23 48.0 2.6 W | 270 6.1 0.00 0.00 56.2 92.2
9/24/21 - 1230 89.5 22 45.3 3.8 NW | 309 7.2 0.00 0.00 56.2 90.8
9/24/21 - 1215 88.9 23 46.3 3.2 NW | 324 8.3 0.00 0.00 56.2 89.6
9/24/21 - 1200 87.9 25 47.4 3.5 N | 354 6.8 0.00 0.00 56.2 89.1
9/24/21 - 1145 87.9 28 50.4 2.8 WNW | 295 5.9 0.00 0.00 56.2 88.6
9/24/21 - 1130 86.9 31 52.4 2.0 WSW | 253 4.6 0.00 0.00 56.2 87.5
9/24/21 - 1115 86.4 32 53.4 2.5 SW | 231 4.4 0.00 0.00 56.2 86.9
9/24/21 - 1100 86.0 32 52.8 1.1 WSW | 257 3.3 0.00 0.00 56.2 86.8
9/24/21 - 1045 84.5 33 52.2 0.9 ESE | 106 2.8 0.00 0.00 56.2 85.3
9/24/21 - 1030 83.3 35 52.7 0.8 NW | 308 3.5 0.00 0.00 56.2 84.2
9/24/21 - 1015 82.5 35 52.2 1.4 N | 349 3.5 0.00 0.00 56.2 83.4
9/24/21 - 1000 81.7 35 51.7 0.7 ENE | 57 2.6 0.00 0.00 56.2 82.6
9/24/21 - 0945 80.3 37 51.8 1.0 NNE | 28 2.4 0.00 0.00 56.2 81.1
9/24/21 - 0930 78.8 40 52.6 1.2 N | 1 3.1 0.00 0.00 56.2 79.2
9/24/21 - 0915 77.9 41 52.0 0.4 NE | 56 1.8 0.00 0.00 56.2 79.1
9/24/21 - 0900 75.0 47 53.2 1.8 E | 99 4.2 0.00 0.00 56.2 76.4
9/24/21 - 0845 72.8 52 54.0 2.8 E | 90 5.0 0.00 0.00 56.2 74.1
9/24/21 - 0830 70.6 54 53.2 3.5 E | 79 5.7 0.00 0.00 56.2 71.6
9/24/21 - 0815 68.0 61 53.8 2.7 ENE | 78 4.4 0.00 0.00 56.2 69.8
9/24/21 - 0800 63.7 74 55.4 0.2 ENE | 77 1.8 0.00 0.00 56.2 66.8
9/24/21 - 0745 60.6 76 53.0 0.3 NNW | 342 1.8 0.00 0.00 56.2 66.8
9/24/21 - 0730 58.5 80 52.3 1.1 NNE | 15 3.1 0.00 0.00 56.2 66.8
9/24/21 - 0715 57.8 81 52.2 1.1 NNW | 337 2.4 0.00 0.00 56.2 66.8
9/24/21 - 0700 57.0 84 52.2 0.7 S | 186 2.2 0.00 0.00 56.2 66.8
9/24/21 - 0645 56.8 85 52.3 0.3 N | 8 1.3 0.00 0.00 56.2 66.8
9/24/21 - 0630 56.5 85 52.1 0.2 N | 360 1.5 0.00 0.00 56.2 66.8
9/24/21 - 0615 56.7 84 51.8 0.1 NW | 325 0.9 0.00 0.00 56.4 66.8
9/24/21 - 0600 57.3 82 51.9 1.3 N | 356 2.2 0.00 0.00 56.8 66.8
9/24/21 - 0545 57.5 81 51.9 1.3 NNE | 22 2.4 0.00 0.00 57.0 66.8
9/24/21 - 0530 58.1 80 52.0 1.0 NW | 318 2.2 0.00 0.00 57.6 66.8
9/24/21 - 0515 58.2 81 52.3 0.0 N | 0 0.0 0.00 0.00 58.0 66.8
9/24/21 - 0500 58.2 81 52.6 0.1 W | 264 0.7 0.00 0.00 58.0 66.8
9/24/21 - 0445 59.3 78 52.4 3.2 WSW | 255 5.9 0.00 0.00 58.2 66.8
9/24/21 - 0430 61.4 69 51.1 1.0 N | 4 2.8 0.00 0.00 60.1 66.8
9/24/21 - 0415 64.1 62 50.9 0.8 E | 98 2.2 0.00 0.00 60.9 66.8
9/24/21 - 0400 64.8 61 51.1 1.5 E | 83 2.8 0.00 0.00 60.9 66.8
9/24/21 - 0345 65.6 60 51.4 2.2 E | 91 4.4 0.00 0.00 60.9 66.8
9/24/21 - 0330 64.2 63 51.4 2.0 ESE | 111 3.5 0.00 0.00 60.9 66.8
9/24/21 - 0315 63.4 66 51.9 1.5 ENE | 62 2.8 0.00 0.00 60.9 66.8
9/24/21 - 0300 63.8 66 52.1 2.4 NE | 42 4.8 0.00 0.00 60.9 66.8
9/24/21 - 0245 65.3 62 52.1 1.7 NE | 49 3.5 0.00 0.00 60.9 66.8
9/24/21 - 0230 63.0 67 51.9 2.2 ENE | 73 4.2 0.00 0.00 60.9 66.8
9/24/21 - 0215 61.2 73 52.4 0.8 NE | 38 2.8 0.00 0.00 60.9 66.8
9/24/21 - 0200 62.0 70 52.1 0.6 NNE | 29 1.5 0.00 0.00 61.4 66.8
9/24/21 - 0145 62.2 70 52.4 0.5 SE | 142 3.1 0.00 0.00 61.6 66.8
9/24/21 - 0130 63.5 67 52.3 0.1 NNE | 16 1.1 0.00 0.00 62.6 66.8
9/24/21 - 0115 65.7 62 52.2 0.1 NNE | 16 0.9 0.00 0.00 64.5 66.8
Max 94.9 85 55.4 5.4 - 9.6 0.00 0.00 68.4 95.4
Avg 76.4 46 51.0 2.2 - 4.5 0.00 - - -
Min 56.5 20 45.3 0.0 - 0.0 0.00 0.00 56.2 66.8
Total - - - - - - 0.00 - - -

Last 7 Days

Modesto Jr College

Daily Data | America/Los_Angeles
as of 9/25/21 1:28 AM PDT
Date Daily ETo (in)
9/24/21 0.157
9/23/21 0.179
9/22/21 0.190
9/21/21 0.159
9/20/21 0.169
9/19/21 0.181
9/18/21 0.157
Max 0.190
Min 0.157